createdAt,value
2023-02-05T00:01:57.046Z,48.96
2023-02-05T00:04:24.545Z,48.83
2023-02-05T00:06:51.695Z,48.62
2023-02-05T00:09:18.851Z,48.31
2023-02-05T00:11:46.258Z,47.50
2023-02-05T00:14:13.409Z,48.75
2023-02-05T00:16:40.597Z,49.53
2023-02-05T00:19:08.058Z,47.72
2023-02-05T00:21:35.257Z,48.46
2023-02-05T00:24:02.397Z,48.93
2023-02-05T00:26:29.827Z,47.97
2023-02-05T00:28:57.010Z,49.64
2023-02-05T00:31:24.397Z,50.58
2023-02-05T00:33:51.999Z,47.55
2023-02-05T00:36:19.841Z,47.97
2023-02-05T00:38:47.203Z,49.79
2023-02-05T00:41:14.854Z,49.18
2023-02-05T00:43:42.572Z,48.64
2023-02-05T00:46:10.500Z,48.58
2023-02-05T00:48:38.113Z,47.40
2023-02-05T00:51:05.359Z,47.81
2023-02-05T00:53:32.848Z,46.87
2023-02-05T00:56:00.290Z,47.17
2023-02-05T00:58:27.607Z,48.70
2023-02-05T01:00:54.747Z,48.38
2023-02-05T01:03:22.199Z,47.44
2023-02-05T01:05:49.357Z,48.34
2023-02-05T01:08:16.628Z,49.74
2023-02-05T01:10:45.489Z,48.48
2023-02-05T01:13:12.797Z,49.05
2023-02-05T01:15:40.134Z,48.47
2023-02-05T01:18:07.630Z,46.99
2023-02-05T01:20:38.556Z,44.80
2023-02-05T01:23:05.805Z,46.79
2023-02-05T01:25:33.509Z,46.59
2023-02-05T01:28:00.877Z,46.63
2023-02-05T01:30:28.100Z,46.57
2023-02-05T01:32:55.529Z,47.26
2023-02-05T01:35:22.659Z,46.50
2023-02-05T01:37:49.797Z,46.25
2023-02-05T01:40:17.366Z,47.86
2023-02-05T01:42:44.676Z,47.88
2023-02-05T01:45:29.681Z,45.85
2023-02-05T01:48:00.970Z,45.54
2023-02-05T01:50:29.380Z,44.98
2023-02-05T01:52:57.438Z,44.33
2023-02-05T01:55:24.601Z,44.20
2023-02-05T01:57:51.763Z,44.83
2023-02-05T02:00:19.302Z,45.39
2023-02-05T02:02:50.117Z,45.67
2023-02-05T02:05:17.802Z,44.39
2023-02-05T02:07:45.511Z,43.45
2023-02-05T02:10:13.830Z,42.20
2023-02-05T02:12:41.488Z,42.78
2023-02-05T02:15:16.523Z,43.55
2023-02-05T02:17:44.920Z,42.51
2023-02-05T02:20:19.257Z,42.59
2023-02-05T02:22:55.493Z,43.03
2023-02-05T02:25:41.949Z,42.18
2023-02-05T02:28:11.900Z,42.96
2023-02-05T02:30:48.299Z,42.45
2023-02-05T02:33:20.341Z,41.71
2023-02-05T02:35:59.366Z,42.04
2023-02-05T02:38:28.366Z,41.05
2023-02-05T02:41:08.359Z,40.94
2023-02-05T02:43:52.334Z,40.56
2023-02-05T02:46:30.626Z,41.27
2023-02-05T02:48:58.479Z,41.17
2023-02-05T02:51:25.952Z,43.67
2023-02-05T02:53:55.269Z,43.47
2023-02-05T02:56:22.748Z,44.43
2023-02-05T02:58:51.004Z,45.00
2023-02-05T03:01:19.596Z,45.06
2023-02-05T03:03:51.379Z,43.48
2023-02-05T03:06:18.810Z,43.51
2023-02-05T03:08:52.396Z,43.19
2023-02-05T03:11:19.864Z,42.94
2023-02-05T03:13:47.105Z,43.07
2023-02-05T03:16:14.833Z,42.18
2023-02-05T03:18:42.311Z,41.05
2023-02-05T03:21:10.694Z,40.99
2023-02-05T03:23:39.083Z,40.27
2023-02-05T03:26:19.023Z,39.44
2023-02-05T03:28:46.290Z,39.38
2023-02-05T03:31:15.814Z,39.37
2023-02-05T03:34:01.854Z,38.93
2023-02-05T03:36:29.530Z,39.78
2023-02-05T03:39:02.711Z,40.92
2023-02-05T03:41:50.809Z,40.91
2023-02-05T03:44:40.094Z,40.48
2023-02-05T03:47:27.120Z,40.03
2023-02-05T03:50:17.603Z,39.97
2023-02-05T03:52:50.644Z,39.39
2023-02-05T03:55:21.274Z,39.54
2023-02-05T03:57:50.927Z,39.39
2023-02-05T04:00:18.383Z,39.25
2023-02-05T04:02:45.985Z,39.14
2023-02-05T04:05:13.516Z,39.18
2023-02-05T04:07:41.210Z,39.22
2023-02-05T04:10:09.243Z,40.36
2023-02-05T04:12:37.638Z,39.10
2023-02-05T04:15:05.540Z,39.22
2023-02-05T04:17:33.006Z,38.24
2023-02-05T04:20:00.315Z,38.48
2023-02-05T04:22:27.736Z,38.45
2023-02-05T04:24:55.201Z,38.60
2023-02-05T04:27:22.468Z,38.22
2023-02-05T04:29:50.040Z,38.14
2023-02-05T04:32:17.525Z,37.11
2023-02-05T04:34:44.691Z,37.87
2023-02-05T04:37:12.247Z,38.04
2023-02-05T04:39:39.700Z,40.27
2023-02-05T04:42:06.856Z,38.84
2023-02-05T04:44:34.017Z,39.61
2023-02-05T04:47:01.435Z,38.49
2023-02-05T04:49:28.678Z,38.24
2023-02-05T04:51:55.843Z,39.75
2023-02-05T04:54:23.307Z,37.91
2023-02-05T04:56:50.558Z,39.41
2023-02-05T04:59:17.934Z,38.43
2023-02-05T05:01:45.473Z,40.64
2023-02-05T05:04:12.606Z,40.95
2023-02-05T05:06:39.758Z,41.59
2023-02-05T05:09:07.197Z,39.97
2023-02-05T05:11:34.343Z,39.96
2023-02-05T05:14:01.523Z,39.97
2023-02-05T05:16:28.972Z,39.27
2023-02-05T05:18:56.136Z,40.21
2023-02-05T05:21:23.280Z,38.56
2023-02-05T05:23:50.722Z,39.72
2023-02-05T05:26:17.879Z,39.40
2023-02-05T05:28:45.018Z,39.80
2023-02-05T05:31:16.869Z,39.09
2023-02-05T05:33:44.180Z,38.64
2023-02-05T05:36:11.486Z,37.73
2023-02-05T05:38:38.973Z,37.62
2023-02-05T05:41:24.626Z,37.83
2023-02-05T05:43:52.775Z,37.10
2023-02-05T05:46:24.357Z,37.16
2023-02-05T05:48:52.819Z,37.22
2023-02-05T05:51:20.369Z,37.04
2023-02-05T05:53:47.579Z,36.43
2023-02-05T05:56:15.475Z,36.36
2023-02-05T05:58:42.971Z,35.98
2023-02-05T06:01:10.518Z,36.12
2023-02-05T06:03:38.055Z,36.14
2023-02-05T06:06:05.828Z,36.32
2023-02-05T06:08:33.118Z,36.23
2023-02-05T06:11:00.544Z,36.67
2023-02-05T06:13:27.709Z,36.58
2023-02-05T06:15:54.942Z,36.39
2023-02-05T06:18:23.791Z,36.34
2023-02-05T06:20:51.159Z,36.24
2023-02-05T06:23:18.314Z,36.59
2023-02-05T06:25:45.733Z,36.34
2023-02-05T06:28:12.916Z,36.17
2023-02-05T06:30:40.187Z,36.55
2023-02-05T06:33:07.652Z,36.19
2023-02-05T06:35:35.149Z,35.63
2023-02-05T06:38:02.421Z,35.53
2023-02-05T06:40:29.884Z,35.50
2023-02-05T06:42:57.029Z,36.46
2023-02-05T06:45:24.166Z,35.50
2023-02-05T06:47:55.997Z,34.86
2023-02-05T06:50:23.447Z,34.62
2023-02-05T06:52:51.305Z,35.16
2023-02-05T06:55:18.851Z,34.92
2023-02-05T06:57:46.000Z,34.51
2023-02-05T07:00:13.956Z,34.20
2023-02-05T07:02:41.396Z,34.77
2023-02-05T07:05:08.908Z,35.28
2023-02-05T07:07:36.041Z,35.07
2023-02-05T07:10:04.328Z,34.37
2023-02-05T07:12:31.775Z,35.09
2023-02-05T07:14:58.950Z,35.54
2023-02-05T07:17:26.494Z,36.56
2023-02-05T07:19:55.129Z,36.17
2023-02-05T07:22:22.315Z,35.44
2023-02-05T07:24:49.734Z,34.56
2023-02-05T07:27:16.911Z,34.34
2023-02-05T07:29:44.051Z,34.74
2023-02-05T07:32:11.518Z,34.75
2023-02-05T07:34:38.730Z,35.20
2023-02-05T07:37:05.877Z,35.12
2023-02-05T07:39:33.509Z,35.01
2023-02-05T07:42:00.897Z,34.21
2023-02-05T07:44:28.569Z,34.22
2023-02-05T07:46:56.292Z,34.64
2023-02-05T07:49:23.600Z,33.86
2023-02-05T07:51:51.798Z,33.83
2023-02-05T07:54:19.445Z,33.88
2023-02-05T07:56:46.632Z,34.43
2023-02-05T07:59:13.748Z,34.08
2023-02-05T08:01:41.162Z,34.48
2023-02-05T08:04:08.617Z,35.83
2023-02-05T08:06:35.828Z,36.54
2023-02-05T08:09:03.261Z,36.76
2023-02-05T08:11:32.549Z,36.05
2023-02-05T08:14:00.702Z,36.06
2023-02-05T08:16:27.893Z,35.48
2023-02-05T08:18:55.357Z,36.40
2023-02-05T08:21:22.630Z,36.32
2023-02-05T08:23:49.823Z,36.42
2023-02-05T08:26:17.643Z,35.77
2023-02-05T08:28:44.870Z,35.71
2023-02-05T08:31:12.878Z,37.19
2023-02-05T08:33:40.354Z,37.56
2023-02-05T08:36:07.751Z,39.11
2023-02-05T08:38:35.030Z,38.22
2023-02-05T08:41:12.713Z,37.52
2023-02-05T08:43:41.197Z,37.41
2023-02-05T08:46:09.148Z,36.98
2023-02-05T08:48:36.362Z,37.70
2023-02-05T08:51:03.938Z,36.88
2023-02-05T08:53:31.902Z,35.99
2023-02-05T08:55:59.875Z,35.90
2023-02-05T08:58:27.478Z,35.46
2023-02-05T09:01:02.566Z,36.03
2023-02-05T09:03:30.634Z,37.59
2023-02-05T09:05:58.495Z,37.10
2023-02-05T09:08:26.198Z,36.20
2023-02-05T09:10:53.385Z,35.90
2023-02-05T09:13:20.837Z,36.94
2023-02-05T09:15:48.661Z,35.97
2023-02-05T09:18:15.930Z,35.31
2023-02-05T09:20:44.631Z,36.06
2023-02-05T09:23:12.280Z,37.49
2023-02-05T09:25:58.303Z,36.54
2023-02-05T09:28:25.717Z,37.20
2023-02-05T09:30:52.968Z,35.62
2023-02-05T09:33:20.297Z,34.88
2023-02-05T09:35:47.704Z,33.12
2023-02-05T09:38:15.312Z,32.57
2023-02-05T09:40:56.853Z,32.94
2023-02-05T09:43:27.561Z,33.20
2023-02-05T09:45:59.502Z,32.30
2023-02-05T09:48:49.643Z,31.12
2023-02-05T09:51:18.862Z,32.20
2023-02-05T09:53:48.012Z,31.95
2023-02-05T09:56:15.177Z,32.30
2023-02-05T09:58:43.672Z,31.53
2023-02-05T10:01:14.232Z,32.22
2023-02-05T10:03:47.149Z,31.87
2023-02-05T10:06:36.369Z,30.66
2023-02-05T10:09:09.613Z,32.35
2023-02-05T10:11:40.658Z,32.52
2023-02-05T10:14:27.199Z,33.83
2023-02-05T10:17:06.697Z,31.45
2023-02-05T10:19:43.447Z,31.28
2023-02-05T10:22:15.096Z,32.23
2023-02-05T10:24:49.708Z,31.18
2023-02-05T10:27:21.695Z,30.28
2023-02-05T10:29:55.172Z,29.77
2023-02-05T10:32:25.331Z,30.08
2023-02-05T10:34:54.077Z,29.61
2023-02-05T10:37:21.911Z,28.97
2023-02-05T10:39:49.686Z,29.82
2023-02-05T10:42:28.421Z,29.14
2023-02-05T10:45:09.101Z,28.74
2023-02-05T10:47:39.823Z,29.14
2023-02-05T10:50:07.929Z,28.18
2023-02-05T10:52:35.142Z,28.79
2023-02-05T10:55:02.565Z,28.51
2023-02-05T10:57:30.471Z,28.18
2023-02-05T11:00:17.309Z,28.19
2023-02-05T11:02:46.586Z,28.55
2023-02-05T11:05:19.738Z,28.89
2023-02-05T11:07:48.038Z,28.39
2023-02-05T11:10:18.202Z,28.71
2023-02-05T11:12:46.304Z,29.55
2023-02-05T11:15:21.715Z,28.44
2023-02-05T11:17:52.929Z,28.78
2023-02-05T11:20:20.655Z,27.31
2023-02-05T11:22:47.860Z,27.73
2023-02-05T11:25:17.759Z,29.30
2023-02-05T11:27:57.759Z,27.84
2023-02-05T11:30:51.923Z,27.10
2023-02-05T11:33:21.749Z,25.92
2023-02-05T11:35:49.818Z,27.66
2023-02-05T11:38:30.131Z,28.66
2023-02-05T11:40:58.610Z,29.67
2023-02-05T11:43:49.090Z,29.93
2023-02-05T11:46:18.072Z,29.55
2023-02-05T11:48:56.492Z,29.74
2023-02-05T11:51:36.416Z,32.23
2023-02-05T11:54:04.432Z,33.22
2023-02-05T11:56:31.906Z,33.42
2023-02-05T11:59:00.624Z,33.08
2023-02-05T12:01:32.689Z,34.35
2023-02-05T12:04:03.463Z,34.24
2023-02-05T12:06:43.074Z,32.33
2023-02-05T12:09:14.831Z,32.87
2023-02-05T12:12:18.562Z,31.64
2023-02-05T12:15:06.437Z,30.83
2023-02-05T12:17:41.558Z,31.16
2023-02-05T12:20:35.936Z,30.33
2023-02-05T12:23:22.372Z,31.06
2023-02-05T12:25:49.863Z,30.66
2023-02-05T12:28:20.582Z,32.13
2023-02-05T12:31:02.715Z,32.26
2023-02-05T12:33:31.770Z,34.42
2023-02-05T12:36:12.008Z,32.80
2023-02-05T12:38:48.736Z,31.27
2023-02-05T12:41:16.222Z,30.80
2023-02-05T12:43:45.839Z,31.06
2023-02-05T12:46:13.573Z,30.93
2023-02-05T12:48:42.181Z,30.75
2023-02-05T12:51:15.781Z,30.47
2023-02-05T12:53:55.274Z,31.89
2023-02-05T12:56:28.670Z,31.70
2023-02-05T12:58:57.550Z,32.19
2023-02-05T13:01:30.292Z,32.20
2023-02-05T13:04:02.385Z,30.96
2023-02-05T13:06:34.455Z,29.76
2023-02-05T13:09:07.004Z,32.27
2023-02-05T13:11:38.001Z,32.06
2023-02-05T13:14:08.693Z,32.09
2023-02-05T13:16:37.962Z,31.25
2023-02-05T13:19:29.633Z,30.45
2023-02-05T13:22:16.965Z,31.13
2023-02-05T13:25:11.006Z,30.45
2023-02-05T13:27:58.440Z,30.38
2023-02-05T13:30:34.758Z,31.07
2023-02-05T13:33:04.355Z,28.73
2023-02-05T13:35:33.293Z,29.63
2023-02-05T13:38:11.022Z,29.67
2023-02-05T13:40:58.118Z,29.59
2023-02-05T13:43:43.727Z,29.08
2023-02-05T13:46:11.571Z,28.15
2023-02-05T13:48:45.152Z,28.62
2023-02-05T13:51:17.752Z,29.50
2023-02-05T13:53:48.169Z,28.81
2023-02-05T13:56:42.929Z,29.14
2023-02-05T13:59:19.209Z,28.49
2023-02-05T14:01:58.314Z,29.14
2023-02-05T14:04:28.143Z,30.44
2023-02-05T14:07:00.947Z,30.09
2023-02-05T14:09:29.105Z,29.09
2023-02-05T14:11:59.646Z,30.11
2023-02-05T14:14:38.423Z,29.84
2023-02-05T14:17:25.330Z,28.04
2023-02-05T14:19:56.994Z,29.63
2023-02-05T14:22:34.880Z,30.35
2023-02-05T14:25:03.151Z,30.35
2023-02-05T14:27:38.320Z,29.56
2023-02-05T14:30:39.134Z,28.80
2023-02-05T14:33:35.067Z,28.51
2023-02-05T14:36:09.872Z,29.19
2023-02-05T14:38:39.295Z,30.78
2023-02-05T14:41:08.665Z,30.12
2023-02-05T14:43:37.190Z,30.61
2023-02-05T14:46:08.035Z,29.64
2023-02-05T14:48:39.294Z,30.08
2023-02-05T14:51:28.454Z,29.85
2023-02-05T14:54:04.719Z,28.39
2023-02-05T14:56:39.920Z,29.18
2023-02-05T14:59:18.634Z,29.42
2023-02-05T15:01:51.151Z,29.65
2023-02-05T15:04:23.230Z,28.71
2023-02-05T15:06:51.468Z,27.49
2023-02-05T15:09:21.028Z,27.21
2023-02-05T15:11:54.782Z,27.83
2023-02-05T15:14:31.018Z,27.68
2023-02-05T15:17:18.870Z,27.09
2023-02-05T15:19:48.667Z,29.09
2023-02-05T15:22:19.833Z,29.02
2023-02-05T15:24:48.863Z,29.89
2023-02-05T15:27:19.002Z,29.53
2023-02-05T15:29:51.405Z,29.48
2023-02-05T15:32:20.925Z,28.98
2023-02-05T15:34:54.425Z,28.54
2023-02-05T15:37:27.920Z,28.69
2023-02-05T15:39:56.229Z,28.68
2023-02-05T15:42:39.700Z,28.88
2023-02-05T15:45:18.103Z,27.78
2023-02-05T15:47:47.580Z,27.82
2023-02-05T15:50:15.358Z,28.99
2023-02-05T15:52:43.168Z,28.37
2023-02-05T15:55:12.796Z,27.77
2023-02-05T15:57:40.915Z,28.02
2023-02-05T16:00:09.667Z,28.12
2023-02-05T16:02:41.475Z,29.74
2023-02-05T16:05:17.534Z,30.37
2023-02-05T16:07:48.077Z,30.55
2023-02-05T16:10:20.081Z,30.39
2023-02-05T16:13:05.173Z,30.71
2023-02-05T16:15:33.225Z,28.22
2023-02-05T16:18:01.406Z,28.03
2023-02-05T16:20:34.369Z,29.48
2023-02-05T16:23:05.841Z,29.17
2023-02-05T16:25:47.396Z,30.48
2023-02-05T16:28:22.533Z,30.91
2023-02-05T16:30:51.204Z,30.96
2023-02-05T16:33:38.304Z,30.42
2023-02-05T16:36:07.204Z,30.84
2023-02-05T16:38:35.971Z,30.57
2023-02-05T16:41:39.249Z,30.92
2023-02-05T16:44:08.199Z,31.29
2023-02-05T16:46:36.733Z,31.16
2023-02-05T16:49:23.485Z,31.10
2023-02-05T16:51:54.975Z,31.10
2023-02-05T16:54:32.577Z,30.45
2023-02-05T16:57:14.540Z,30.64
2023-02-05T16:59:45.081Z,30.66
2023-02-05T17:02:21.733Z,31.15
2023-02-05T17:04:52.849Z,31.21
2023-02-05T17:07:21.715Z,30.93
2023-02-05T17:09:50.426Z,31.20
2023-02-05T17:12:38.806Z,31.47
2023-02-05T17:15:13.587Z,31.58
2023-02-05T17:17:47.090Z,31.24
2023-02-05T17:20:15.586Z,31.57
2023-02-05T17:23:04.057Z,31.40
2023-02-05T17:25:35.418Z,31.43
2023-02-05T17:28:04.312Z,31.89
2023-02-05T17:30:33.407Z,32.50
2023-02-05T17:33:02.063Z,32.66
2023-02-05T17:35:30.668Z,33.05
2023-02-05T17:37:59.693Z,32.81
2023-02-05T17:40:28.178Z,33.03
2023-02-05T17:42:56.502Z,33.53
2023-02-05T17:45:27.449Z,33.52
2023-02-05T17:47:55.714Z,33.99
2023-02-05T17:50:24.640Z,34.64
2023-02-05T17:52:52.763Z,34.12
2023-02-05T17:55:22.014Z,34.31
2023-02-05T17:58:00.318Z,34.20
2023-02-05T18:00:32.089Z,34.06
2023-02-05T18:03:00.775Z,34.54
2023-02-05T18:05:28.524Z,34.59
2023-02-05T18:08:00.251Z,34.65
2023-02-05T18:10:31.046Z,34.67
2023-02-05T18:13:01.860Z,35.10
2023-02-05T18:15:29.859Z,35.06
2023-02-05T18:17:59.754Z,34.71
2023-02-05T18:20:28.096Z,34.86
2023-02-05T18:22:56.234Z,34.36
2023-02-05T18:25:24.329Z,34.69
2023-02-05T18:27:56.854Z,34.54
2023-02-05T18:30:24.987Z,36.00
2023-02-05T18:32:53.650Z,35.20
2023-02-05T18:35:21.882Z,35.40
2023-02-05T18:37:53.153Z,35.65
2023-02-05T18:40:20.947Z,35.33
2023-02-05T18:42:49.629Z,35.72
2023-02-05T18:45:18.170Z,35.79
2023-02-05T18:47:46.057Z,35.53
2023-02-05T18:50:15.197Z,35.06
2023-02-05T18:52:44.805Z,34.70
2023-02-05T18:55:13.887Z,34.21
2023-02-05T18:57:43.055Z,33.94
2023-02-05T19:00:16.095Z,33.40
2023-02-05T19:02:44.055Z,33.31
2023-02-05T19:05:12.687Z,33.49
2023-02-05T19:07:40.526Z,33.15
2023-02-05T19:10:08.090Z,33.15
2023-02-05T19:12:38.693Z,33.18
2023-02-05T19:15:09.459Z,32.98
2023-02-05T19:17:39.000Z,33.14
2023-02-05T19:20:07.840Z,32.85
2023-02-05T19:22:36.083Z,32.64
2023-02-05T19:25:04.412Z,33.79
2023-02-05T19:27:33.174Z,33.26
2023-02-05T19:30:01.562Z,33.64
2023-02-05T19:32:29.288Z,33.34
2023-02-05T19:35:00.101Z,33.17
2023-02-05T19:37:29.368Z,32.36
2023-02-05T19:39:57.851Z,32.47
2023-02-05T19:42:27.716Z,32.97
2023-02-05T19:44:57.685Z,32.45
2023-02-05T19:47:28.630Z,32.69
2023-02-05T19:49:58.257Z,32.71
2023-02-05T19:52:26.742Z,32.35
2023-02-05T19:54:54.737Z,32.31
2023-02-05T19:57:22.902Z,32.18
2023-02-05T19:59:52.606Z,31.81
2023-02-05T20:02:21.486Z,32.22
2023-02-05T20:04:50.358Z,32.00
2023-02-05T20:07:18.761Z,31.50
2023-02-05T20:09:47.101Z,31.75
2023-02-05T20:12:15.789Z,31.85
2023-02-05T20:14:44.484Z,32.09
2023-02-05T20:17:16.410Z,31.83
2023-02-05T20:19:44.929Z,32.26
2023-02-05T20:22:12.800Z,31.87
2023-02-05T20:24:40.664Z,32.11
2023-02-05T20:27:09.368Z,32.48
2023-02-05T20:29:56.380Z,32.61
2023-02-05T20:32:24.603Z,32.63
2023-02-05T20:34:54.313Z,32.13
2023-02-05T20:37:22.697Z,31.74
2023-02-05T20:39:51.227Z,31.40
2023-02-05T20:42:19.025Z,31.52
2023-02-05T20:44:47.901Z,31.47
2023-02-05T20:47:17.414Z,31.47
2023-02-05T20:49:46.258Z,30.94
2023-02-05T20:52:17.418Z,31.83
2023-02-05T20:54:46.164Z,31.97
2023-02-05T20:57:14.543Z,31.61
2023-02-05T20:59:43.298Z,31.51
2023-02-05T21:02:14.489Z,31.70
2023-02-05T21:04:42.414Z,31.50
2023-02-05T21:07:15.326Z,31.78
2023-02-05T21:09:44.851Z,31.34
2023-02-05T21:12:13.062Z,31.46
2023-02-05T21:14:40.656Z,31.43
2023-02-05T21:17:10.880Z,31.21
2023-02-05T21:19:40.544Z,30.95
2023-02-05T21:22:08.892Z,31.02
2023-02-05T21:24:37.408Z,31.13
2023-02-05T21:27:05.149Z,31.30
2023-02-05T21:29:32.609Z,31.16
2023-02-05T21:32:00.409Z,31.58
2023-02-05T21:34:28.096Z,31.09
2023-02-05T21:36:56.435Z,31.11
2023-02-05T21:39:25.778Z,30.96
2023-02-05T21:41:54.275Z,31.02
2023-02-05T21:44:22.093Z,30.67
2023-02-05T21:46:49.397Z,30.47
2023-02-05T21:49:16.711Z,30.66
2023-02-05T21:51:44.193Z,31.53
2023-02-05T21:54:11.630Z,31.71
2023-02-05T21:56:40.844Z,31.37
2023-02-05T21:59:08.903Z,30.79
2023-02-05T22:01:36.373Z,31.18
2023-02-05T22:04:20.008Z,30.81
2023-02-05T22:06:47.149Z,30.67
2023-02-05T22:09:15.368Z,31.29
2023-02-05T22:11:46.325Z,31.85
2023-02-05T22:14:15.219Z,31.56
2023-02-05T22:16:42.780Z,31.75
2023-02-05T22:19:09.967Z,32.01
2023-02-05T22:21:41.146Z,31.72
2023-02-05T22:24:10.737Z,31.35
2023-02-05T22:26:38.804Z,31.25
2023-02-05T22:29:06.898Z,31.22
2023-02-05T22:31:34.600Z,31.48
2023-02-05T22:34:01.808Z,31.35
2023-02-05T22:36:30.177Z,31.38
2023-02-05T22:38:57.789Z,31.55
2023-02-05T22:41:25.791Z,32.00
2023-02-05T22:43:56.829Z,31.89
2023-02-05T22:46:25.272Z,32.09
2023-02-05T22:48:52.845Z,32.30
2023-02-05T22:51:31.830Z,32.52
2023-02-05T22:54:00.833Z,32.90
2023-02-05T22:56:28.249Z,32.57
2023-02-05T22:58:55.794Z,32.53
2023-02-05T23:01:24.491Z,33.32
2023-02-05T23:03:52.122Z,33.30
2023-02-05T23:06:20.715Z,32.96
2023-02-05T23:08:55.777Z,32.75
2023-02-05T23:11:23.148Z,32.91
2023-02-05T23:13:50.737Z,33.01
2023-02-05T23:16:19.439Z,32.72
2023-02-05T23:18:46.961Z,32.79
2023-02-05T23:21:18.355Z,32.63
2023-02-05T23:23:45.496Z,32.24
2023-02-05T23:26:14.094Z,32.50
2023-02-05T23:28:41.611Z,33.03
2023-02-05T23:31:08.942Z,33.84
2023-02-05T23:33:36.570Z,33.41
2023-02-05T23:36:04.379Z,33.25
2023-02-05T23:38:31.522Z,33.16
2023-02-05T23:41:01.090Z,33.24
2023-02-05T23:43:28.566Z,33.58
2023-02-05T23:45:55.772Z,33.78
2023-02-05T23:48:23.015Z,34.09
2023-02-05T23:50:51.099Z,34.11
2023-02-05T23:53:21.028Z,34.19
2023-02-05T23:55:48.873Z,34.05
2023-02-05T23:58:17.797Z,34.18
